Time;durP1;ratioP1;P1;durP2;ratioP2;P2;SDS_P1;SDS_P2;PMS_P1;PMS_P2;Temp;Humidity;BMP_temperature;BMP_pressure;BME280_temperature;BME280_humidity;BME280_pressure;Samples;Min_cycle;Max_cycle;Signal;HPM_P1;HPM_P2
2021/01/15 00:00:21;;;;;;;11.82;6.25;;;2.80;99.90;;;;;;5007741;28;20240;-84
2021/01/15 00:02:47;;;;;;;9.80;5.50;;;2.60;99.90;;;;;;4997243;28;20246;-85
2021/01/15 00:05:14;;;;;;;8.02;3.72;;;2.70;99.90;;;;;;5004707;28;20223;-86
2021/01/15 00:07:42;;;;;;;13.43;6.63;;;2.60;99.90;;;;;;5016903;28;20216;-85
2021/01/15 00:10:09;;;;;;;9.50;4.32;;;2.60;99.90;;;;;;5017093;28;20219;-85
2021/01/15 00:12:38;;;;;;;16.70;8.23;;;2.70;99.90;;;;;;5017628;28;20227;-85
2021/01/15 00:15:06;;;;;;;6.25;4.38;;;2.80;99.90;;;;;;5028561;28;20299;-85
2021/01/15 00:17:34;;;;;;;10.07;6.35;;;2.60;99.90;;;;;;5014743;28;20208;-85
2021/01/15 00:20:00;;;;;;;11.27;6.28;;;2.90;99.90;;;;;;5000577;28;20304;-85
2021/01/15 00:22:27;;;;;;;13.35;7.03;;;2.70;99.90;;;;;;5027728;28;20204;-84
2021/01/15 00:24:54;;;;;;;9.15;5.43;;;2.90;99.90;;;;;;5030795;28;20247;-83
2021/01/15 00:27:21;;;;;;;10.30;6.35;;;2.70;99.90;;;;;;5023982;28;20204;-83
2021/01/15 00:29:47;;;;;;;13.27;5.85;;;2.50;99.90;;;;;;5018010;28;20211;-87
2021/01/15 00:32:14;;;;;;;10.88;5.88;;;2.40;99.90;;;;;;5017894;28;20224;-87
2021/01/15 00:34:41;;;;;;;10.15;6.90;;;2.80;99.90;;;;;;5017076;28;20246;-86
2021/01/15 00:37:07;;;;;;;8.63;5.25;;;2.90;99.90;;;;;;5017177;28;20212;-87
2021/01/15 00:39:34;;;;;;;10.35;5.90;;;2.70;99.90;;;;;;5017712;28;20218;-85
2021/01/15 00:42:01;;;;;;;11.93;6.00;;;2.80;99.90;;;;;;5015337;28;20211;-85
2021/01/15 00:44:28;;;;;;;8.55;4.90;;;2.50;99.90;;;;;;5016060;28;20224;-86
2021/01/15 00:46:54;;;;;;;9.02;5.97;;;2.70;99.90;;;;;;5020745;28;20208;-83
2021/01/15 00:49:21;;;;;;;10.70;5.90;;;2.80;99.90;;;;;;5022535;28;20208;-83
2021/01/15 00:51:49;;;;;;;7.47;3.47;;;2.80;99.90;;;;;;5021328;28;20281;-84
2021/01/15 00:54:16;;;;;;;11.50;5.75;;;2.60;99.90;;;;;;5021573;28;20234;-84
2021/01/15 00:56:43;;;;;;;7.45;4.60;;;2.50;99.90;;;;;;5022110;28;20299;-84
2021/01/15 00:59:10;;;;;;;9.63;5.55;;;2.70;99.90;;;;;;5017773;28;20211;-82
2021/01/15 01:01:39;;;;;;;9.02;5.22;;;2.40;99.90;;;;;;5004392;28;20228;-83
2021/01/15 01:04:06;;;;;;;9.25;4.47;;;2.30;99.90;;;;;;5000025;28;20220;-84
2021/01/15 01:06:33;;;;;;;9.52;5.15;;;2.60;99.90;;;;;;5001636;28;20213;-85
2021/01/15 01:09:03;;;;;;;7.15;3.85;;;2.60;99.90;;;;;;5017170;28;20212;-84
2021/01/15 01:11:31;;;;;;;9.73;4.72;;;2.60;99.90;;;;;;5013825;28;20247;-84
2021/01/15 01:13:58;;;;;;;7.93;4.60;;;2.30;99.90;;;;;;4999197;28;20232;-83
2021/01/15 01:16:27;;;;;;;9.50;3.67;;;2.30;99.90;;;;;;4998685;28;20216;-84
2021/01/15 01:18:54;;;;;;;6.85;3.53;;;2.60;99.90;;;;;;4996582;28;20215;-85
2021/01/15 01:21:21;;;;;;;7.68;4.30;;;2.70;99.90;;;;;;4996231;28;20208;-85
2021/01/15 01:23:48;;;;;;;8.15;3.90;;;2.60;99.90;;;;;;5000128;28;20237;-83
2021/01/15 01:26:15;;;;;;;7.15;4.10;;;2.70;99.90;;;;;;4997852;28;20204;-83
2021/01/15 01:28:42;;;;;;;7.60;4.30;;;2.50;99.90;;;;;;5014521;28;20200;-83
2021/01/15 01:31:10;;;;;;;7.10;4.03;;;2.40;99.90;;;;;;5015054;28;20420;-86
2021/01/15 01:33:37;;;;;;;7.18;4.57;;;2.40;99.90;;;;;;5014865;28;20252;-85
2021/01/15 01:36:05;;;;;;;7.38;4.05;;;2.50;99.90;;;;;;5014801;28;20253;-85
2021/01/15 01:38:32;;;;;;;11.88;3.90;;;2.70;99.90;;;;;;5021669;28;20208;-84
2021/01/15 01:40:59;;;;;;;8.70;2.80;;;2.60;99.90;;;;;;5024649;28;20688;-86
2021/01/15 01:43:26;;;;;;;8.13;3.83;;;2.50;99.90;;;;;;5031990;28;20725;-84
2021/01/15 01:45:54;;;;;;;6.60;3.08;;;2.60;99.90;;;;;;5019474;28;20223;-84
2021/01/15 01:48:21;;;;;;;11.85;4.57;;;2.50;99.90;;;;;;5019206;28;20214;-83
2021/01/15 01:50:50;;;;;;;7.25;4.38;;;2.30;99.90;;;;;;5017949;28;20262;-85
2021/01/15 01:53:21;;;;;;;4.60;2.30;;;2.60;99.90;;;;;;5017491;28;20219;-84
2021/01/15 01:55:48;;;;;;;4.78;2.40;;;2.40;99.90;;;;;;5017930;28;20236;-84
2021/01/15 01:58:17;;;;;;;6.00;3.10;;;2.40;99.90;;;;;;5017789;28;20363;-85
2021/01/15 02:00:44;;;;;;;3.10;1.77;;;2.30;99.90;;;;;;5018151;28;20188;-84
2021/01/15 02:03:16;;;;;;;4.30;1.92;;;2.40;99.90;;;;;;5017766;28;20212;-84
2021/01/15 02:05:43;;;;;;;4.32;2.30;;;2.20;99.90;;;;;;5022385;28;20566;-84
2021/01/15 02:08:11;;;;;;;4.18;1.55;;;2.00;99.90;;;;;;5018741;28;20204;-86
2021/01/15 02:10:42;;;;;;;7.35;3.17;;;2.00;99.90;;;;;;5018441;28;20302;-84
2021/01/15 02:13:17;;;;;;;5.43;2.90;;;1.90;99.90;;;;;;5022730;28;20192;-83
2021/01/15 02:15:46;;;;;;;8.07;3.55;;;2.10;99.90;;;;;;5022633;28;20202;-83
2021/01/15 02:18:24;;;;;;;4.50;2.80;;;2.00;99.90;;;;;;5020127;28;20211;-84
2021/01/15 02:21:21;;;;;;;6.72;2.08;;;2.10;99.90;;;;;;5019662;28;20199;-86
2021/01/15 02:23:50;;;;;;;4.57;3.15;;;2.00;99.90;;;;;;5004500;28;20266;-83
2021/01/15 02:26:59;;;;;;;7.18;3.38;;;1.90;99.90;;;;;;5034508;28;20199;-83
2021/01/15 02:29:27;;;;;;;4.38;2.40;;;1.90;99.90;;;;;;5007564;28;20210;-87
2021/01/15 02:32:23;;;;;;;6.90;2.70;;;2.20;99.90;;;;;;5003246;28;20220;-86
2021/01/15 02:35:29;;;;;;;7.45;3.13;;;2.20;99.90;;;;;;5005453;28;20231;-85
2021/01/15 02:38:17;;;;;;;5.07;2.45;;;2.00;99.90;;;;;;5020109;28;20208;-85
2021/01/15 02:41:03;;;;;;;4.68;2.85;;;1.90;99.90;;;;;;5009481;28;20231;-85
2021/01/15 02:43:31;;;;;;;6.30;2.92;;;2.00;99.90;;;;;;5003631;28;20752;-87
2021/01/15 02:46:00;;;;;;;3.63;1.73;;;2.00;99.90;;;;;;5005855;28;20205;-87
2021/01/15 02:48:30;;;;;;;6.95;2.40;;;2.00;99.90;;;;;;5024098;28;20204;-85
2021/01/15 02:51:00;;;;;;;6.75;3.22;;;2.10;99.90;;;;;;5032964;28;20239;-83
2021/01/15 02:53:27;;;;;;;5.82;3.05;;;2.10;99.90;;;;;;5025927;28;20240;-82
2021/01/15 02:55:54;;;;;;;6.93;3.25;;;1.90;99.90;;;;;;5012050;28;20300;-87
2021/01/15 02:58:20;;;;;;;5.00;2.47;;;1.90;99.90;;;;;;5024765;28;20204;-83
2021/01/15 03:00:47;;;;;;;3.90;2.20;;;2.00;99.90;;;;;;5034044;28;20259;-84
2021/01/15 03:03:21;;;;;;;3.55;1.60;;;1.90;99.90;;;;;;5029687;28;20207;-83
2021/01/15 03:05:53;;;;;;;4.93;2.47;;;2.00;99.90;;;;;;5022383;28;20259;-87
2021/01/15 03:08:23;;;;;;;6.05;3.10;;;1.90;99.90;;;;;;5020023;28;20197;-86
2021/01/15 03:10:51;;;;;;;8.30;3.97;;;2.00;99.90;;;;;;5020136;28;20188;-84
2021/01/15 03:13:19;;;;;;;6.05;3.20;;;1.70;99.90;;;;;;5022606;28;20240;-86
2021/01/15 03:15:48;;;;;;;6.35;2.90;;;1.80;99.90;;;;;;5033076;28;20208;-83
2021/01/15 03:18:15;;;;;;;4.97;3.00;;;1.70;99.90;;;;;;5031018;28;20215;-86
2021/01/15 03:20:43;;;;;;;5.93;3.45;;;1.70;99.90;;;;;;5021643;28;20205;-88
2021/01/15 03:23:09;;;;;;;6.93;3.65;;;1.80;99.90;;;;;;5007498;28;20232;-82
2021/01/15 03:25:37;;;;;;;5.50;3.25;;;2.00;99.90;;;;;;5017078;28;20292;-86
2021/01/15 03:28:04;;;;;;;5.15;2.78;;;2.00;99.90;;;;;;5027265;28;20258;-83
2021/01/15 03:30:32;;;;;;;5.78;3.40;;;1.70;99.90;;;;;;5032768;28;20200;-84
2021/01/15 03:33:01;;;;;;;5.82;2.90;;;1.70;99.90;;;;;;5036866;28;20228;-86
2021/01/15 03:35:29;;;;;;;3.85;1.50;;;1.80;99.90;;;;;;5012542;28;20231;-83
2021/01/15 03:37:57;;;;;;;4.20;2.33;;;1.90;99.90;;;;;;5021613;28;20215;-86
2021/01/15 03:40:25;;;;;;;8.45;3.50;;;1.90;99.90;;;;;;5024873;28;20208;-83
2021/01/15 03:42:52;;;;;;;6.20;3.30;;;1.80;99.90;;;;;;5033169;28;20215;-83
2021/01/15 03:45:19;;;;;;;7.88;3.50;;;1.60;99.90;;;;;;5022776;28;20224;-85
2021/01/15 03:47:45;;;;;;;8.25;4.10;;;1.60;99.90;;;;;;5030609;28;20199;-84
2021/01/15 03:50:13;;;;;;;5.90;3.38;;;1.60;99.90;;;;;;5020010;28;20197;-82
2021/01/15 03:52:40;;;;;;;5.70;3.55;;;1.70;99.90;;;;;;5018112;28;20212;-86
2021/01/15 03:55:07;;;;;;;5.82;3.72;;;1.80;99.90;;;;;;5032254;28;20255;-83
2021/01/15 03:57:34;;;;;;;5.90;3.25;;;1.50;99.90;;;;;;5050548;22;20247;-80
2021/01/15 04:00:04;;;;;;;7.97;3.63;;;1.90;99.90;;;;;;5064126;28;20222;-80
2021/01/15 04:02:31;;;;;;;6.00;4.15;;;1.60;99.90;;;;;;5060929;28;20266;-80
2021/01/15 04:04:58;;;;;;;6.32;3.95;;;1.70;99.90;;;;;;5055841;28;20555;-80
2021/01/15 04:07:25;;;;;;;5.05;3.10;;;1.70;99.90;;;;;;5049141;28;20262;-80
2021/01/15 04:09:51;;;;;;;7.03;3.80;;;1.50;99.90;;;;;;5031724;28;20234;-80
2021/01/15 04:12:18;;;;;;;7.55;3.53;;;1.70;99.90;;;;;;5032965;28;20237;-80
2021/01/15 04:14:45;;;;;;;6.90;4.25;;;1.50;99.90;;;;;;5032539;28;20247;-80
2021/01/15 04:17:12;;;;;;;5.55;3.15;;;1.60;99.90;;;;;;5015900;28;20544;-80
2021/01/15 04:19:39;;;;;;;7.50;3.63;;;1.80;99.90;;;;;;5030200;28;20226;-80
2021/01/15 04:22:06;;;;;;;5.00;3.00;;;1.50;99.90;;;;;;5036172;28;20261;-80
2021/01/15 04:24:32;;;;;;;8.15;3.55;;;1.60;99.90;;;;;;5031342;28;20700;-80
2021/01/15 04:26:59;;;;;;;7.05;3.03;;;1.60;99.90;;;;;;5032437;28;20286;-80
2021/01/15 04:29:26;;;;;;;7.72;3.97;;;1.50;99.90;;;;;;5025440;28;20204;-80
2021/01/15 04:31:53;;;;;;;7.30;3.38;;;1.40;99.90;;;;;;5012200;28;20239;-80
2021/01/15 04:34:20;;;;;;;5.72;3.00;;;1.40;99.90;;;;;;5016507;28;20200;-80
2021/01/15 04:36:47;;;;;;;5.72;3.05;;;1.40;99.90;;;;;;5032238;28;20265;-80
2021/01/15 04:39:13;;;;;;;7.80;3.78;;;1.40;99.90;;;;;;5031732;28;20219;-80
2021/01/15 04:41:42;;;;;;;6.72;3.58;;;1.20;99.90;;;;;;5032111;28;20203;-81
2021/01/15 04:44:09;;;;;;;5.57;3.20;;;1.20;99.90;;;;;;5030323;28;20212;-80
2021/01/15 04:46:39;;;;;;;12.38;4.25;;;1.40;99.90;;;;;;5031293;28;20294;-81
2021/01/15 04:49:09;;;;;;;7.90;3.20;;;1.50;99.90;;;;;;5030810;28;20593;-80
2021/01/15 04:51:39;;;;;;;6.55;4.40;;;1.30;99.90;;;;;;5031989;28;20231;-80
2021/01/15 04:54:07;;;;;;;6.57;4.00;;;1.30;99.90;;;;;;5030667;28;20207;-80
2021/01/15 04:56:40;;;;;;;5.95;3.78;;;1.30;99.90;;;;;;5014932;28;20233;-79
2021/01/15 04:59:08;;;;;;;6.45;4.20;;;1.20;99.90;;;;;;5029653;28;20243;-80
2021/01/15 05:01:39;;;;;;;8.88;5.05;;;1.20;99.90;;;;;;5031707;28;20199;-80
2021/01/15 05:04:10;;;;;;;8.23;4.32;;;1.30;99.90;;;;;;5032251;28;20215;-81
2021/01/15 05:06:45;;;;;;;9.68;3.42;;;1.30;99.90;;;;;;5012129;28;20212;-80
2021/01/15 05:09:14;;;;;;;9.02;4.30;;;1.10;99.90;;;;;;5012514;28;20232;-79
2021/01/15 05:11:43;;;;;;;9.10;4.40;;;1.00;99.90;;;;;;5032414;28;20227;-80
2021/01/15 05:14:11;;;;;;;8.93;4.47;;;1.30;99.90;;;;;;5035507;28;20215;-79
2021/01/15 05:16:39;;;;;;;6.35;4.15;;;1.30;99.90;;;;;;5031116;28;20565;-80
2021/01/15 05:19:06;;;;;;;11.68;5.05;;;1.20;99.90;;;;;;5035965;28;20222;-80
2021/01/15 05:21:34;;;;;;;9.13;4.18;;;1.30;99.90;;;;;;5030879;28;20563;-80
2021/01/15 05:24:02;;;;;;;8.50;4.95;;;1.20;99.90;;;;;;5031480;28;20238;-80
2021/01/15 05:26:28;;;;;;;7.10;3.97;;;1.00;99.90;;;;;;5013708;28;20924;-80
2021/01/15 05:28:56;;;;;;;8.57;4.70;;;1.00;99.90;;;;;;5024557;28;20627;-80
2021/01/15 05:31:22;;;;;;;6.18;3.25;;;1.20;99.90;;;;;;5030527;28;20716;-81
2021/01/15 05:34:06;;;;;;;5.90;3.50;;;1.30;99.90;;;;;;5031752;28;20222;-80
2021/01/15 05:36:34;;;;;;;7.80;5.40;;;1.20;99.90;;;;;;5014615;28;20603;-80
2021/01/15 05:39:10;;;;;;;8.00;4.40;;;1.10;99.90;;;;;;5033120;28;20219;-79
2021/01/15 05:41:37;;;;;;;6.75;3.35;;;1.00;99.90;;;;;;5036856;28;20202;-79
2021/01/15 05:44:05;;;;;;;8.13;4.72;;;1.30;99.90;;;;;;5034474;28;20272;-79
2021/01/15 05:46:32;;;;;;;8.20;4.80;;;1.10;99.90;;;;;;5035340;28;20669;-79
2021/01/15 05:49:09;;;;;;;10.75;4.65;;;1.10;99.90;;;;;;5034579;28;20231;-80
2021/01/15 05:51:37;;;;;;;6.82;4.15;;;1.00;99.90;;;;;;5035988;28;20238;-79
2021/01/15 05:54:06;;;;;;;8.07;3.80;;;1.00;99.90;;;;;;5029641;28;20271;-79
2021/01/15 05:56:54;;;;;;;4.07;2.20;;;1.10;99.90;;;;;;5022434;28;20203;-80
2021/01/15 05:59:21;;;;;;;4.63;2.70;;;0.90;99.90;;;;;;5022825;28;20262;-79
2021/01/15 06:01:50;;;;;;;8.88;5.15;;;1.10;99.90;;;;;;5013266;28;20680;-78
2021/01/15 06:04:17;;;;;;;8.82;4.38;;;1.00;99.90;;;;;;5022204;28;20262;-78
2021/01/15 06:06:45;;;;;;;14.43;4.35;;;0.90;99.90;;;;;;5028916;28;20251;-79
2021/01/15 06:09:18;;;;;;;7.40;3.83;;;0.90;99.90;;;;;;5013968;28;20223;-78
2021/01/15 06:11:44;;;;;;;8.48;4.38;;;0.80;99.90;;;;;;5027402;28;20235;-79
2021/01/15 06:14:19;;;;;;;9.52;5.13;;;0.90;99.90;;;;;;5012927;28;20212;-79
2021/01/15 06:16:46;;;;;;;9.27;5.25;;;0.90;99.90;;;;;;5014399;28;20207;-79
2021/01/15 06:19:12;;;;;;;8.88;3.85;;;0.70;99.90;;;;;;5039429;28;20229;-79
2021/01/15 06:21:50;;;;;;;10.73;5.20;;;1.00;99.90;;;;;;5053840;28;20207;-79
2021/01/15 06:24:21;;;;;;;6.63;3.95;;;0.80;99.90;;;;;;5032945;28;20211;-79
2021/01/15 06:27:04;;;;;;;7.45;4.78;;;0.80;99.90;;;;;;5029243;28;20203;-80
2021/01/15 06:29:42;;;;;;;7.13;4.90;;;0.90;99.90;;;;;;5032662;28;20283;-80
2021/01/15 06:32:10;;;;;;;10.32;4.18;;;0.90;99.90;;;;;;5029406;28;20211;-80
2021/01/15 06:34:47;;;;;;;8.63;4.65;;;0.70;99.90;;;;;;5015222;28;20619;-79
2021/01/15 06:37:19;;;;;;;11.80;5.03;;;0.90;99.90;;;;;;5033538;28;20831;-80
2021/01/15 06:40:02;;;;;;;7.38;4.40;;;0.60;99.90;;;;;;5033364;28;20361;-80
2021/01/15 06:42:30;;;;;;;6.05;3.80;;;0.80;99.90;;;;;;5032301;28;20203;-80
2021/01/15 06:44:58;;;;;;;7.68;4.88;;;0.70;99.90;;;;;;5019628;28;20207;-80
2021/01/15 06:47:27;;;;;;;6.80;3.53;;;0.70;99.90;;;;;;5013272;28;20578;-80
2021/01/15 06:49:57;;;;;;;7.80;4.10;;;0.80;99.90;;;;;;5014871;28;20291;-80
2021/01/15 06:52:27;;;;;;;6.07;4.15;;;0.50;99.90;;;;;;5032318;28;20226;-80
2021/01/15 06:54:55;;;;;;;11.70;3.13;;;0.70;99.90;;;;;;5020648;28;20200;-80
2021/01/15 06:57:30;;;;;;;7.63;4.60;;;0.80;99.90;;;;;;5036383;28;20235;-79
2021/01/15 07:00:02;;;;;;;7.88;4.90;;;0.70;99.90;;;;;;5050390;28;20207;-79
2021/01/15 07:02:49;;;;;;;8.25;4.40;;;0.80;99.90;;;;;;5050534;28;20265;-79
2021/01/15 07:05:22;;;;;;;10.13;5.03;;;0.90;99.90;;;;;;5047580;28;20226;-79
2021/01/15 07:07:51;;;;;;;8.18;4.35;;;0.60;99.90;;;;;;5050960;28;20246;-83
2021/01/15 07:10:17;;;;;;;10.50;4.65;;;0.70;99.90;;;;;;5052836;28;20210;-79
2021/01/15 07:12:44;;;;;;;9.02;4.35;;;0.60;99.90;;;;;;5050697;28;20247;-80
2021/01/15 07:15:14;;;;;;;11.57;4.55;;;0.50;99.90;;;;;;5053493;28;20286;-79
2021/01/15 07:17:46;;;;;;;9.32;5.05;;;0.70;99.90;;;;;;5053372;28;20235;-78
2021/01/15 07:20:14;;;;;;;9.35;4.45;;;0.60;99.90;;;;;;5056863;28;20199;-79
2021/01/15 07:22:50;;;;;;;9.45;5.53;;;0.50;99.90;;;;;;5042011;28;20233;-80
2021/01/15 07:25:17;;;;;;;8.75;4.70;;;0.40;99.90;;;;;;5048325;28;20264;-80
2021/01/15 07:27:44;;;;;;;7.85;4.50;;;0.60;99.90;;;;;;5046174;28;20314;-75
2021/01/15 07:30:15;;;;;;;12.55;5.10;;;0.50;99.90;;;;;;5034874;28;20235;-75
2021/01/15 07:32:42;;;;;;;13.60;5.55;;;0.40;99.90;;;;;;5042019;28;20222;-79
2021/01/15 07:35:15;;;;;;;3.78;1.85;;;0.40;99.90;;;;;;5047482;28;20211;-79
2021/01/15 07:37:42;;;;;;;8.93;5.38;;;0.40;99.90;;;;;;5047014;28;20863;-80
2021/01/15 07:40:14;;;;;;;8.82;5.70;;;0.30;99.90;;;;;;5046760;28;20273;-80
2021/01/15 07:42:59;;;;;;;10.43;5.72;;;0.30;99.90;;;;;;5047022;28;20241;-80
2021/01/15 07:46:00;;;;;;;12.25;5.90;;;0.40;99.90;;;;;;5047451;28;20618;-79
2021/01/15 07:48:26;;;;;;;11.68;6.32;;;0.40;99.90;;;;;;5050235;28;20254;-80
2021/01/15 07:50:54;;;;;;;10.23;5.47;;;0.40;99.90;;;;;;5050026;28;20207;-80
2021/01/15 07:53:22;;;;;;;10.85;5.68;;;0.40;99.90;;;;;;5049342;28;20230;-80
2021/01/15 07:55:50;;;;;;;8.80;5.60;;;0.40;99.90;;;;;;5050116;28;20208;-80
2021/01/15 07:58:18;;;;;;;9.90;5.55;;;0.50;99.90;;;;;;5048755;28;20254;-79
2021/01/15 08:00:46;;;;;;;12.93;5.70;;;0.60;99.90;;;;;;5039188;28;20238;-78
2021/01/15 08:03:14;;;;;;;8.77;4.65;;;0.40;99.90;;;;;;5036578;28;20202;-80
2021/01/15 08:05:43;;;;;;;9.90;5.43;;;0.40;99.90;;;;;;5039476;28;20218;-80
2021/01/15 08:08:15;;;;;;;17.13;8.20;;;0.50;99.90;;;;;;5039282;28;20853;-80
2021/01/15 08:10:48;;;;;;;13.95;7.72;;;0.50;99.90;;;;;;5038051;28;20204;-80
2021/01/15 08:13:32;;;;;;;12.02;7.03;;;0.60;99.90;;;;;;5042375;28;20581;-80
2021/01/15 08:16:04;;;;;;;13.40;7.10;;;0.60;99.90;;;;;;5035793;28;20211;-80
2021/01/15 08:18:32;;;;;;;14.15;8.20;;;0.70;99.90;;;;;;5035642;28;20365;-75
2021/01/15 08:20:58;;;;;;;13.05;7.28;;;0.90;99.90;;;;;;5047770;28;20226;-79
2021/01/15 08:23:26;;;;;;;10.23;6.90;;;1.00;99.90;;;;;;5036248;28;20498;-76
2021/01/15 08:26:12;;;;;;;14.25;8.75;;;0.90;99.90;;;;;;5035532;28;20211;-81
2021/01/15 08:28:38;;;;;;;11.55;6.97;;;0.80;99.90;;;;;;5044571;28;20234;-79
2021/01/15 08:31:07;;;;;;;12.20;7.78;;;0.90;99.90;;;;;;5040954;28;20276;-79
2021/01/15 08:33:37;;;;;;;15.07;8.35;;;1.10;99.90;;;;;;5035068;28;20223;-79
2021/01/15 08:36:05;;;;;;;11.98;7.80;;;1.00;99.90;;;;;;5033666;28;20857;-79
2021/01/15 08:38:36;;;;;;;17.40;7.30;;;1.00;99.90;;;;;;5032004;28;20281;-80
2021/01/15 08:41:14;;;;;;;12.32;6.25;;;0.80;99.90;;;;;;5031493;28;20207;-79
2021/01/15 08:43:41;;;;;;;15.27;7.25;;;0.90;99.90;;;;;;5034022;28;20230;-81
2021/01/15 08:46:15;;;;;;;18.90;7.25;;;1.00;99.90;;;;;;5039129;28;20207;-82
2021/01/15 08:48:42;;;;;;;14.73;6.75;;;1.00;99.90;;;;;;5040025;28;20294;-80
2021/01/15 08:51:10;;;;;;;14.43;8.80;;;0.60;99.90;;;;;;5038786;28;20227;-79
2021/01/15 08:53:43;;;;;;;16.25;8.40;;;0.70;99.90;;;;;;5036554;28;20258;-79
2021/01/15 08:56:14;;;;;;;21.45;9.82;;;0.80;99.90;;;;;;5035972;28;20261;-80
2021/01/15 08:58:48;;;;;;;14.70;8.70;;;0.80;99.90;;;;;;5037403;28;20234;-80
2021/01/15 09:01:27;;;;;;;16.45;8.23;;;1.00;99.90;;;;;;5037553;28;20206;-80
2021/01/15 09:03:57;;;;;;;17.13;7.50;;;0.80;99.90;;;;;;5037190;28;20206;-81
2021/01/15 09:06:24;;;;;;;9.68;5.30;;;0.90;99.90;;;;;;5035443;28;20207;-80
2021/01/15 09:08:54;;;;;;;15.55;8.07;;;0.90;99.90;;;;;;5034642;28;20231;-80
2021/01/15 09:11:29;;;;;;;9.00;4.60;;;0.80;99.90;;;;;;5032521;28;20199;-80
2021/01/15 09:13:56;;;;;;;19.83;7.55;;;0.90;99.90;;;;;;5032004;28;20806;-80
2021/01/15 09:16:25;;;;;;;13.23;8.38;;;0.90;99.90;;;;;;5032806;28;20261;-81
2021/01/15 09:18:52;;;;;;;11.60;6.18;;;1.10;99.90;;;;;;5036011;28;20234;-82
2021/01/15 09:21:20;;;;;;;13.35;7.97;;;1.30;99.90;;;;;;5038426;28;20257;-81
2021/01/15 09:23:47;;;;;;;7.95;4.60;;;1.40;99.90;;;;;;5034813;28;20214;-81
2021/01/15 09:26:15;;;;;;;9.07;4.65;;;1.40;99.90;;;;;;5036135;28;20214;-81
2021/01/15 09:28:42;;;;;;;14.23;7.90;;;1.40;99.90;;;;;;5034959;28;20234;-81
2021/01/15 09:31:09;;;;;;;14.30;7.55;;;1.40;99.90;;;;;;5034201;28;20651;-81
2021/01/15 09:33:46;;;;;;;10.73;6.32;;;1.20;99.90;;;;;;5037341;28;20226;-81
2021/01/15 09:36:19;;;;;;;12.75;7.75;;;1.20;99.90;;;;;;5035465;28;20213;-81
2021/01/15 09:38:46;;;;;;;14.15;7.38;;;1.10;99.90;;;;;;5039502;28;20235;-80
2021/01/15 09:41:13;;;;;;;13.95;5.80;;;1.40;99.90;;;;;;5034480;28;20226;-79
2021/01/15 09:43:41;;;;;;;13.55;8.48;;;1.50;99.90;;;;;;5033566;28;20210;-82
2021/01/15 09:46:08;;;;;;;12.82;6.72;;;1.10;99.90;;;;;;5035267;28;20226;-80
2021/01/15 09:48:34;;;;;;;13.02;8.60;;;1.50;99.90;;;;;;5036405;28;20238;-81
2021/01/15 09:51:01;;;;;;;12.63;7.00;;;1.30;99.90;;;;;;5036014;28;20364;-80
2021/01/15 09:53:28;;;;;;;18.13;7.10;;;1.70;99.90;;;;;;5035633;28;20332;-82
2021/01/15 09:55:55;;;;;;;14.55;8.43;;;1.70;99.90;;;;;;5041269;28;20214;-80
2021/01/15 09:58:22;;;;;;;15.50;9.30;;;1.50;99.90;;;;;;5042909;28;20706;-81
2021/01/15 10:00:48;;;;;;;13.32;8.50;;;1.40;99.90;;;;;;5036664;28;20589;-82
2021/01/15 10:03:15;;;;;;;13.60;9.35;;;1.50;99.90;;;;;;5038524;28;20199;-80
2021/01/15 10:05:41;;;;;;;12.48;6.70;;;1.60;99.90;;;;;;5041040;28;21019;-78
2021/01/15 10:08:08;;;;;;;13.70;7.60;;;1.40;99.90;;;;;;5035970;28;20251;-77
2021/01/15 10:10:36;;;;;;;15.32;9.20;;;1.60;99.90;;;;;;5035826;28;20195;-81
2021/01/15 10:13:02;;;;;;;17.05;8.75;;;1.50;99.90;;;;;;5035580;28;20226;-77
2021/01/15 10:15:29;;;;;;;11.52;8.52;;;1.70;99.90;;;;;;5038739;28;20248;-82
2021/01/15 10:17:56;;;;;;;14.80;9.05;;;1.50;99.90;;;;;;5042248;28;20278;-81
2021/01/15 10:20:25;;;;;;;13.50;9.55;;;1.50;99.90;;;;;;5041914;28;20199;-82
2021/01/15 10:22:52;;;;;;;15.40;9.30;;;1.70;99.90;;;;;;5042356;28;20662;-82
2021/01/15 10:25:19;;;;;;;13.50;8.38;;;1.50;99.90;;;;;;5037924;28;20203;-82
2021/01/15 10:27:47;;;;;;;8.20;4.28;;;1.70;99.90;;;;;;5045613;28;20234;-82
2021/01/15 10:30:15;;;;;;;8.07;3.88;;;1.80;99.90;;;;;;5063663;28;20210;-82
2021/01/15 10:32:47;;;;;;;7.97;5.30;;;1.80;99.90;;;;;;5067318;28;20230;-81
2021/01/15 10:35:14;;;;;;;13.73;8.43;;;1.80;99.90;;;;;;5052296;28;20211;-82
2021/01/15 10:37:41;;;;;;;10.07;5.47;;;1.80;99.90;;;;;;5043146;28;20251;-83
2021/01/15 10:40:09;;;;;;;12.88;8.88;;;2.00;99.90;;;;;;5043275;28;20597;-82
2021/01/15 10:42:38;;;;;;;15.00;8.93;;;1.70;99.90;;;;;;5043863;28;20207;-82
2021/01/15 10:45:07;;;;;;;15.65;8.40;;;1.70;99.90;;;;;;5044883;28;20265;-82
2021/01/15 10:47:34;;;;;;;13.73;6.78;;;1.70;99.90;;;;;;5044340;28;20230;-81
2021/01/15 10:50:00;;;;;;;13.60;8.40;;;2.30;99.90;;;;;;5042910;28;20207;-81
2021/01/15 10:52:27;;;;;;;13.70;8.73;;;2.20;99.90;;;;;;5040287;28;20223;-80
2021/01/15 10:54:53;;;;;;;14.75;9.93;;;2.10;99.90;;;;;;5041821;28;20211;-81
2021/01/15 10:57:20;;;;;;;13.70;8.23;;;2.10;99.90;;;;;;5040330;28;20302;-81
2021/01/15 10:59:46;;;;;;;15.18;8.38;;;2.20;99.90;;;;;;5041162;28;20249;-81
2021/01/15 11:02:14;;;;;;;13.65;8.93;;;2.00;99.90;;;;;;5031599;28;20212;-80
2021/01/15 11:04:40;;;;;;;14.25;8.90;;;2.20;99.90;;;;;;5052475;28;20225;-81
2021/01/15 11:07:07;;;;;;;13.38;8.70;;;2.10;99.90;;;;;;5049342;28;20199;-81
2021/01/15 11:09:34;;;;;;;16.45;10.02;;;2.20;99.90;;;;;;5038231;28;20591;-81
2021/01/15 11:12:00;;;;;;;12.18;8.25;;;2.30;99.90;;;;;;5036919;28;20247;-81
2021/01/15 11:14:27;;;;;;;13.80;8.48;;;2.50;99.90;;;;;;5023393;28;20216;-81
2021/01/15 11:16:54;;;;;;;14.60;8.93;;;2.40;99.90;;;;;;5048507;28;20210;-81
2021/01/15 11:19:22;;;;;;;15.57;10.40;;;2.50;99.90;;;;;;5039629;28;20215;-81
2021/01/15 11:21:50;;;;;;;16.70;10.27;;;2.40;99.90;;;;;;5036080;28;20352;-81
2021/01/15 11:24:17;;;;;;;18.15;9.38;;;2.50;99.90;;;;;;5037841;28;20217;-80
2021/01/15 11:26:44;;;;;;;14.25;8.93;;;2.60;99.90;;;;;;5039260;28;20274;-81
2021/01/15 11:29:12;;;;;;;12.30;8.02;;;2.70;99.90;;;;;;5039734;28;20722;-80
2021/01/15 11:31:40;;;;;;;13.38;6.90;;;2.80;99.90;;;;;;5040345;28;20302;-80
2021/01/15 11:34:06;;;;;;;17.83;8.55;;;2.70;99.90;;;;;;5041271;28;20211;-80
2021/01/15 11:36:34;;;;;;;17.83;10.20;;;2.60;99.90;;;;;;5032693;28;20200;-79
2021/01/15 11:39:03;;;;;;;17.25;10.35;;;2.80;99.90;;;;;;5025936;28;20219;-80
2021/01/15 11:41:29;;;;;;;20.20;9.43;;;2.70;99.90;;;;;;5036736;28;20249;-80
2021/01/15 11:43:56;;;;;;;15.10;9.35;;;3.00;99.90;;;;;;5037733;28;20208;-81
2021/01/15 11:46:22;;;;;;;12.38;5.65;;;3.30;99.90;;;;;;5031283;28;20218;-81
2021/01/15 11:48:49;;;;;;;13.35;7.55;;;3.10;99.90;;;;;;5030874;28;20228;-80
2021/01/15 11:51:16;;;;;;;13.50;8.70;;;3.00;99.90;;;;;;5014451;28;20264;-77
2021/01/15 11:53:43;;;;;;;15.52;9.60;;;3.10;99.90;;;;;;5026101;28;20222;-78
2021/01/15 11:56:10;;;;;;;13.60;9.45;;;3.00;99.90;;;;;;5037623;28;20203;-81
2021/01/15 11:58:37;;;;;;;19.00;9.55;;;3.00;99.90;;;;;;5024105;28;20243;-76
2021/01/15 12:01:05;;;;;;;16.95;9.98;;;3.10;99.90;;;;;;5011536;28;20622;-75
2021/01/15 12:03:31;;;;;;;17.88;9.95;;;3.20;99.90;;;;;;5012215;28;20240;-76
2021/01/15 12:05:58;;;;;;;17.05;10.68;;;3.30;99.90;;;;;;5012023;28;20262;-76
2021/01/15 12:08:25;;;;;;;11.15;7.80;;;3.30;99.90;;;;;;5031668;28;20238;-76
2021/01/15 12:10:54;;;;;;;14.82;9.05;;;3.10;99.90;;;;;;5037279;28;20230;-78
2021/01/15 12:13:21;;;;;;;14.77;9.60;;;3.40;99.90;;;;;;5017040;28;20293;-76
2021/01/15 12:15:48;;;;;;;15.77;9.13;;;3.20;99.90;;;;;;5013919;28;20243;-76
2021/01/15 12:18:15;;;;;;;13.40;9.15;;;3.50;99.90;;;;;;5040041;28;20258;-80
2021/01/15 12:20:42;;;;;;;15.82;8.35;;;3.10;99.90;;;;;;5049272;28;20202;-75
2021/01/15 12:23:09;;;;;;;14.35;8.60;;;3.50;99.90;;;;;;5041119;28;20810;-81
2021/01/15 12:25:39;;;;;;;18.88;9.68;;;3.30;99.90;;;;;;5035518;28;20275;-81
2021/01/15 12:28:07;;;;;;;16.30;9.30;;;3.40;99.90;;;;;;5037015;28;20234;-82
2021/01/15 12:30:34;;;;;;;8.60;5.00;;;3.60;99.90;;;;;;5037975;28;20257;-81
2021/01/15 12:33:05;;;;;;;14.07;7.35;;;3.40;99.90;;;;;;5036741;28;20231;-81
2021/01/15 12:35:32;;;;;;;15.45;9.48;;;3.20;99.90;;;;;;5037527;28;20302;-81
2021/01/15 12:38:04;;;;;;;14.27;9.23;;;3.20;99.90;;;;;;5038066;28;20337;-82
2021/01/15 12:40:30;;;;;;;15.80;9.25;;;3.20;99.90;;;;;;5015790;28;20204;-81
2021/01/15 12:42:57;;;;;;;15.35;8.90;;;3.20;99.90;;;;;;5018618;28;20204;-81
2021/01/15 12:45:25;;;;;;;16.75;9.60;;;3.50;99.90;;;;;;5018321;28;20207;-81
2021/01/15 12:47:51;;;;;;;12.90;7.57;;;3.40;99.90;;;;;;5017510;28;20355;-80
2021/01/15 12:50:18;;;;;;;11.43;4.28;;;3.30;99.90;;;;;;5015024;28;20250;-81
2021/01/15 12:52:45;;;;;;;14.05;6.55;;;3.60;99.90;;;;;;5016164;28;20242;-82
2021/01/15 12:55:12;;;;;;;12.85;6.82;;;3.20;99.90;;;;;;5027027;28;20203;-82
2021/01/15 12:57:39;;;;;;;12.07;6.80;;;3.50;99.90;;;;;;5036783;28;20245;-83
2021/01/15 13:00:06;;;;;;;10.50;6.40;;;3.50;99.90;;;;;;5034350;28;20207;-81
2021/01/15 13:02:34;;;;;;;11.63;7.47;;;3.40;99.90;;;;;;5037323;28;20294;-81